Time;durP1;ratioP1;P1;durP2;ratioP2;P2;SDS_P1;SDS_P2;PMS_P1;PMS_P2;Temp;Humidity;BMP_temperature;BMP_pressure;BME280_temperature;BME280_humidity;BME280_pressure;Samples;Min_cycle;Max_cycle;Signal;HPM_P1;HPM_P2
2023/02/18 00:01:14;;;;;;;3.23;2.83;;;12.10;99.90;;;;;;4926568;28;20456;-72
2023/02/18 00:03:40;;;;;;;3.27;2.97;;;12.00;99.90;;;;;;4927156;29;20222;-71
2023/02/18 00:06:17;;;;;;;4.07;3.30;;;12.10;99.90;;;;;;4927965;29;20471;-71
2023/02/18 00:08:44;;;;;;;3.23;2.93;;;12.00;99.90;;;;;;4927436;29;22020;-71
2023/02/18 00:11:13;;;;;;;3.80;3.37;;;12.00;99.90;;;;;;4928441;29;20471;-71
2023/02/18 00:13:39;;;;;;;6.30;3.87;;;12.00;99.90;;;;;;4930837;29;20475;-72
2023/02/18 00:16:08;;;;;;;4.40;3.47;;;12.00;99.90;;;;;;4925630;29;21009;-71
2023/02/18 00:18:34;;;;;;;4.33;3.60;;;12.00;99.90;;;;;;4931008;29;20251;-70
2023/02/18 00:21:01;;;;;;;3.80;3.40;;;11.90;99.90;;;;;;4923482;28;20568;-71
2023/02/18 00:23:27;;;;;;;4.87;3.23;;;11.90;99.90;;;;;;4929396;29;20663;-70
2023/02/18 00:26:19;;;;;;;4.10;3.00;;;11.90;99.90;;;;;;4926227;29;20630;-70
2023/02/18 00:28:47;;;;;;;3.80;2.60;;;11.80;99.90;;;;;;4926841;29;20227;-70
2023/02/18 00:31:16;;;;;;;3.07;2.40;;;11.80;99.90;;;;;;4929142;29;20464;-71
2023/02/18 00:33:42;;;;;;;2.60;2.37;;;11.80;99.90;;;;;;4927118;29;20467;-72
2023/02/18 00:36:11;;;;;;;3.67;2.77;;;11.80;99.90;;;;;;4929072;28;20471;-70
2023/02/18 00:38:38;;;;;;;2.77;2.53;;;11.80;99.90;;;;;;4927499;29;20476;-72
2023/02/18 00:41:04;;;;;;;3.40;2.27;;;11.80;99.90;;;;;;4917898;29;20467;-72
2023/02/18 00:43:29;;;;;;;2.13;1.87;;;11.70;99.90;;;;;;4915507;29;20445;-72
2023/02/18 00:45:55;;;;;;;2.43;1.50;;;11.70;99.90;;;;;;4908475;29;20240;-72
2023/02/18 00:48:21;;;;;;;2.20;1.83;;;11.70;99.90;;;;;;4926447;29;20725;-71
2023/02/18 00:50:46;;;;;;;2.23;1.60;;;11.70;99.90;;;;;;4926575;29;20815;-72
2023/02/18 00:53:12;;;;;;;1.83;1.50;;;11.70;99.90;;;;;;4937103;28;20635;-72
2023/02/18 00:55:40;;;;;;;2.10;1.70;;;11.70;99.90;;;;;;4927893;28;20602;-71
2023/02/18 00:58:05;;;;;;;6.27;1.30;;;11.60;99.90;;;;;;4923567;29;20704;-72
2023/02/18 01:00:31;;;;;;;2.83;1.87;;;11.60;99.90;;;;;;4928706;29;20562;-68
2023/02/18 01:02:57;;;;;;;1.70;1.60;;;11.70;99.90;;;;;;4909932;29;20601;-72
2023/02/18 01:05:23;;;;;;;1.97;1.47;;;11.70;99.90;;;;;;4924012;29;20230;-72
2023/02/18 01:07:48;;;;;;;2.10;1.80;;;11.70;99.90;;;;;;4926430;29;20712;-71
2023/02/18 01:10:15;;;;;;;1.40;1.30;;;11.70;99.90;;;;;;4927325;28;20238;-72
2023/02/18 01:12:41;;;;;;;1.73;1.30;;;11.70;99.90;;;;;;4955322;28;20234;-72
2023/02/18 01:15:07;;;;;;;1.47;1.37;;;11.70;99.90;;;;;;4924896;29;20472;-73
2023/02/18 01:17:33;;;;;;;1.40;1.20;;;11.60;99.90;;;;;;4928724;29;20227;-72
2023/02/18 01:19:59;;;;;;;2.93;1.23;;;11.60;99.90;;;;;;4912699;28;20477;-72
2023/02/18 01:22:26;;;;;;;1.67;1.23;;;11.60;99.90;;;;;;4922671;29;20227;-72
2023/02/18 01:24:51;;;;;;;1.23;1.10;;;11.60;99.90;;;;;;4905772;29;20496;-72
2023/02/18 01:27:17;;;;;;;1.43;1.33;;;11.60;99.90;;;;;;4940113;28;20835;-72
2023/02/18 01:29:43;;;;;;;1.53;1.40;;;11.60;99.90;;;;;;4920414;29;20488;-72
2023/02/18 01:32:09;;;;;;;2.13;1.53;;;11.60;99.90;;;;;;4925367;28;20218;-72
2023/02/18 01:34:34;;;;;;;1.30;1.20;;;11.50;99.90;;;;;;4906920;29;20282;-72
2023/02/18 01:37:00;;;;;;;2.43;1.60;;;11.60;99.90;;;;;;4917536;29;20215;-72
2023/02/18 01:39:26;;;;;;;1.43;1.20;;;11.50;99.90;;;;;;4916425;29;20230;-72
2023/02/18 01:41:51;;;;;;;2.20;1.03;;;11.50;99.90;;;;;;4922727;29;20232;-71
2023/02/18 01:44:24;;;;;;;1.10;1.00;;;11.50;99.90;;;;;;4934227;28;20229;-73
2023/02/18 01:46:50;;;;;;;1.87;1.40;;;11.50;99.90;;;;;;4907198;29;20255;-73
2023/02/18 01:49:23;;;;;;;1.53;1.40;;;11.50;99.90;;;;;;4923803;29;20483;-73
2023/02/18 01:51:58;;;;;;;1.30;1.20;;;11.50;99.90;;;;;;4927641;29;20487;-72
2023/02/18 01:54:29;;;;;;;1.83;1.47;;;11.50;99.90;;;;;;4920071;29;20466;-72
2023/02/18 01:57:01;;;;;;;1.17;1.10;;;11.60;99.90;;;;;;4925337;29;20463;-72
2023/02/18 01:59:35;;;;;;;1.67;1.47;;;11.50;99.90;;;;;;4923150;29;20546;-72
2023/02/18 02:02:01;;;;;;;2.97;1.13;;;11.50;99.90;;;;;;4918776;28;21011;-71
2023/02/18 02:04:28;;;;;;;1.60;1.50;;;11.40;99.90;;;;;;4925986;29;20452;-71
2023/02/18 02:06:54;;;;;;;1.43;1.33;;;11.50;99.90;;;;;;4920935;28;21012;-72
2023/02/18 02:09:24;;;;;;;1.70;1.60;;;11.40;99.90;;;;;;4916445;29;20232;-72
2023/02/18 02:11:56;;;;;;;1.80;1.63;;;11.50;99.90;;;;;;4925693;28;20467;-72
2023/02/18 02:14:43;;;;;;;1.70;1.60;;;11.50;99.90;;;;;;4926581;29;20462;-72
2023/02/18 02:17:37;;;;;;;2.47;1.67;;;11.50;99.90;;;;;;4928908;29;20474;-72
2023/02/18 02:20:47;;;;;;;1.10;1.00;;;11.40;99.90;;;;;;4902795;29;20463;-72
2023/02/18 02:23:21;;;;;;;5.67;1.77;;;11.40;99.90;;;;;;4911498;29;20497;-72
2023/02/18 02:26:26;;;;;;;1.67;1.37;;;11.40;99.90;;;;;;4924518;29;20475;-72
2023/02/18 02:29:12;;;;;;;1.37;1.27;;;11.40;99.90;;;;;;4912713;29;20524;-72
2023/02/18 02:31:47;;;;;;;1.30;1.20;;;11.40;99.90;;;;;;4923280;29;20500;-71
2023/02/18 02:34:33;;;;;;;2.30;1.40;;;11.40;99.90;;;;;;4948347;28;20447;-72
2023/02/18 02:37:15;;;;;;;1.97;1.37;;;11.40;99.90;;;;;;4952168;28;20467;-71
2023/02/18 02:39:46;;;;;;;1.97;1.30;;;11.40;99.90;;;;;;4913316;29;20467;-71
2023/02/18 02:42:25;;;;;;;1.50;1.40;;;11.50;99.90;;;;;;4910048;29;20519;-72
2023/02/18 02:44:57;;;;;;;1.37;1.27;;;11.50;99.90;;;;;;4917065;29;20463;-72
2023/02/18 02:47:46;;;;;;;3.27;1.80;;;11.40;99.90;;;;;;4924929;29;20991;-72
2023/02/18 02:50:20;;;;;;;3.90;2.07;;;11.50;99.90;;;;;;4920402;29;20470;-73
2023/02/18 02:52:52;;;;;;;2.17;1.57;;;11.40;99.90;;;;;;4906700;29;20453;-72
2023/02/18 02:55:19;;;;;;;2.20;1.63;;;11.50;99.90;;;;;;4924562;29;20529;-71
2023/02/18 02:57:53;;;;;;;3.10;2.20;;;11.50;99.90;;;;;;4942483;28;20502;-72
2023/02/18 03:00:31;;;;;;;1.60;1.50;;;11.40;99.90;;;;;;4913271;29;20482;-72
2023/02/18 03:03:28;;;;;;;1.70;1.60;;;11.40;99.90;;;;;;4928113;29;20808;-72
2023/02/18 03:06:23;;;;;;;5.60;1.40;;;11.50;99.90;;;;;;4911053;29;20460;-72
2023/02/18 03:09:09;;;;;;;1.67;1.37;;;11.40;99.90;;;;;;4920932;29;20476;-72
2023/02/18 03:12:04;;;;;;;1.73;1.37;;;11.50;99.90;;;;;;4926360;29;20546;-69
2023/02/18 03:14:53;;;;;;;2.50;1.80;;;11.40;99.90;;;;;;4917507;29;20976;-72
2023/02/18 03:17:53;;;;;;;2.00;1.40;;;11.40;99.90;;;;;;4923422;28;20522;-71
2023/02/18 03:20:49;;;;;;;3.70;1.70;;;11.40;99.90;;;;;;4896712;29;20422;-71
2023/02/18 03:23:19;;;;;;;1.17;1.07;;;11.40;99.90;;;;;;4926412;29;20451;-72
2023/02/18 03:25:45;;;;;;;2.40;1.30;;;11.40;99.90;;;;;;4928008;29;20452;-72
2023/02/18 03:28:16;;;;;;;1.20;1.10;;;11.40;99.90;;;;;;4932143;29;20439;-72
2023/02/18 03:30:46;;;;;;;1.73;1.10;;;11.40;99.90;;;;;;4930079;28;20527;-72
2023/02/18 03:33:16;;;;;;;1.10;0.93;;;11.40;99.90;;;;;;4918878;29;20491;-72
2023/02/18 03:35:44;;;;;;;1.10;1.00;;;11.40;99.90;;;;;;4926955;29;20459;-72
2023/02/18 03:38:36;;;;;;;0.80;0.63;;;11.40;99.90;;;;;;4942340;28;20460;-72
2023/02/18 03:41:02;;;;;;;0.87;0.70;;;11.40;99.90;;;;;;4898895;29;20451;-71
2023/02/18 03:43:28;;;;;;;0.70;0.70;;;11.40;99.90;;;;;;4930067;29;20474;-72
2023/02/18 03:45:54;;;;;;;0.70;0.70;;;11.40;99.90;;;;;;4944068;28;20487;-72
2023/02/18 03:48:20;;;;;;;0.60;0.60;;;11.40;99.90;;;;;;4926076;29;20455;-71
2023/02/18 03:50:45;;;;;;;0.63;0.60;;;11.40;99.90;;;;;;4903416;29;20729;-72
2023/02/18 03:53:11;;;;;;;0.50;0.50;;;11.40;99.90;;;;;;4937182;28;20266;-72
2023/02/18 03:55:37;;;;;;;0.60;0.50;;;11.40;99.90;;;;;;4929472;29;20475;-72
2023/02/18 03:58:03;;;;;;;0.70;0.70;;;11.40;99.90;;;;;;4912379;28;20715;-72
2023/02/18 04:00:28;;;;;;;0.60;0.60;;;11.40;99.90;;;;;;4947571;28;20300;-71
2023/02/18 04:02:54;;;;;;;1.20;0.60;;;11.40;99.90;;;;;;4925659;29;20702;-70
2023/02/18 04:05:20;;;;;;;0.50;0.40;;;11.40;99.90;;;;;;4929352;29;20223;-72
2023/02/18 04:07:45;;;;;;;0.60;0.50;;;11.30;99.90;;;;;;4942691;28;20226;-72
2023/02/18 04:10:11;;;;;;;0.50;0.40;;;11.30;99.90;;;;;;4890452;28;1086401;-72
2023/02/18 04:12:37;;;;;;;0.73;0.60;;;11.30;99.90;;;;;;4942727;28;20280;-71
2023/02/18 04:15:03;;;;;;;0.60;0.57;;;11.30;99.90;;;;;;4950124;28;20745;-72
2023/02/18 04:17:30;;;;;;;0.50;0.43;;;11.30;99.90;;;;;;4926617;29;20245;-71
2023/02/18 04:19:56;;;;;;;0.53;0.53;;;11.30;99.90;;;;;;4943613;28;20833;-71
2023/02/18 04:22:21;;;;;;;0.80;0.80;;;11.30;99.90;;;;;;4930275;29;20452;-73
2023/02/18 04:24:47;;;;;;;0.80;0.80;;;11.20;99.90;;;;;;4933467;29;20229;-72
2023/02/18 04:27:13;;;;;;;0.60;0.50;;;11.20;99.90;;;;;;4929529;28;20230;-72
2023/02/18 04:29:38;;;;;;;0.67;0.67;;;11.30;99.90;;;;;;4928670;28;20259;-73
2023/02/18 04:32:04;;;;;;;0.63;0.63;;;11.30;99.90;;;;;;4916725;28;20222;-73
2023/02/18 04:34:30;;;;;;;0.80;0.80;;;11.20;99.90;;;;;;4942459;28;20223;-71
2023/02/18 04:36:56;;;;;;;1.10;1.00;;;11.20;99.90;;;;;;4927707;28;20323;-71
2023/02/18 04:39:22;;;;;;;0.80;0.70;;;11.20;99.90;;;;;;4926885;28;20227;-71
2023/02/18 04:41:48;;;;;;;1.00;0.90;;;11.30;99.90;;;;;;4927298;29;20231;-75
2023/02/18 04:44:13;;;;;;;1.43;1.33;;;11.20;99.90;;;;;;4929307;29;21084;-72
2023/02/18 04:46:39;;;;;;;1.00;0.90;;;11.20;99.90;;;;;;4931980;28;20778;-72
2023/02/18 04:49:05;;;;;;;1.00;0.90;;;11.20;99.90;;;;;;4924634;28;20222;-72
2023/02/18 04:51:30;;;;;;;1.07;0.97;;;11.20;99.90;;;;;;4927309;29;20682;-72
2023/02/18 04:53:56;;;;;;;2.20;0.83;;;11.20;99.90;;;;;;4950582;28;20227;-72
2023/02/18 04:56:22;;;;;;;0.80;0.80;;;11.20;99.90;;;;;;4927832;29;20246;-72
2023/02/18 04:58:47;;;;;;;1.07;0.90;;;11.20;99.90;;;;;;4924988;29;20944;-72
2023/02/18 05:01:13;;;;;;;1.10;0.97;;;11.20;99.90;;;;;;4925870;28;20371;-73
2023/02/18 05:03:39;;;;;;;1.30;0.80;;;11.20;99.90;;;;;;4929897;29;20316;-71
2023/02/18 05:06:05;;;;;;;0.60;0.60;;;11.20;99.90;;;;;;4925835;29;20251;-72
2023/02/18 05:08:30;;;;;;;1.10;0.73;;;11.20;99.90;;;;;;4925238;29;20231;-69
2023/02/18 05:10:56;;;;;;;1.47;1.10;;;11.20;99.90;;;;;;4924192;28;20570;-72
2023/02/18 05:13:22;;;;;;;0.97;0.97;;;11.20;99.90;;;;;;4924483;29;20222;-71
2023/02/18 05:15:48;;;;;;;1.57;0.97;;;11.20;99.90;;;;;;4925695;29;20223;-71
2023/02/18 05:18:14;;;;;;;1.43;1.13;;;11.10;99.90;;;;;;4925480;29;20281;-72
2023/02/18 05:20:39;;;;;;;0.77;0.77;;;11.10;99.90;;;;;;4923900;29;20510;-72
2023/02/18 05:23:05;;;;;;;1.23;1.13;;;11.10;99.90;;;;;;4929344;29;20223;-72
2023/02/18 05:25:31;;;;;;;2.97;1.10;;;11.10;99.90;;;;;;4928489;29;20228;-71
2023/02/18 05:27:56;;;;;;;4.30;1.43;;;11.10;99.90;;;;;;4922876;28;20244;-71
2023/02/18 05:30:22;;;;;;;2.10;1.77;;;11.10;99.90;;;;;;4925077;29;20725;-72
2023/02/18 05:32:48;;;;;;;1.60;1.50;;;11.10;99.90;;;;;;4920583;29;20220;-72
2023/02/18 05:35:13;;;;;;;2.23;2.00;;;11.10;99.90;;;;;;4941587;28;20591;-72
2023/02/18 05:37:39;;;;;;;2.00;1.87;;;11.00;99.90;;;;;;4923793;29;20231;-72
2023/02/18 05:40:06;;;;;;;2.50;1.90;;;11.00;99.90;;;;;;4945310;28;20219;-72
2023/02/18 05:42:31;;;;;;;1.83;1.73;;;11.00;99.90;;;;;;4926045;29;20246;-72
2023/02/18 05:44:58;;;;;;;1.60;1.50;;;11.00;99.90;;;;;;4943331;28;20617;-72
2023/02/18 05:47:23;;;;;;;2.93;2.20;;;11.00;99.90;;;;;;4941656;28;20223;-72
2023/02/18 05:49:49;;;;;;;2.70;1.87;;;11.00;99.90;;;;;;4923003;29;20481;-70
2023/02/18 05:52:16;;;;;;;2.70;2.30;;;11.00;99.90;;;;;;4927873;28;20568;-72
2023/02/18 05:54:43;;;;;;;3.30;2.53;;;11.00;99.90;;;;;;4925181;29;20469;-71
2023/02/18 05:57:09;;;;;;;2.73;2.30;;;10.90;99.90;;;;;;4926034;29;20479;-72
2023/02/18 05:59:35;;;;;;;2.40;2.20;;;10.90;99.90;;;;;;4924057;28;20994;-72
2023/02/18 06:02:01;;;;;;;2.93;2.40;;;10.90;99.90;;;;;;4926348;28;20546;-72
2023/02/18 06:04:27;;;;;;;4.00;3.03;;;10.90;99.90;;;;;;4908961;29;20743;-72
2023/02/18 06:06:53;;;;;;;3.77;2.80;;;10.90;99.90;;;;;;4924959;28;20226;-72
2023/02/18 06:09:19;;;;;;;2.77;2.50;;;10.90;99.90;;;;;;4931163;28;20259;-71
2023/02/18 06:11:45;;;;;;;3.10;2.80;;;10.90;99.90;;;;;;4942423;28;20495;-72
2023/02/18 06:14:10;;;;;;;3.27;2.70;;;10.80;99.90;;;;;;4923881;29;20226;-72
2023/02/18 06:16:36;;;;;;;4.20;2.90;;;10.80;99.90;;;;;;4942951;28;20253;-72
2023/02/18 06:19:02;;;;;;;4.20;2.77;;;10.80;99.90;;;;;;4925203;29;20227;-71
2023/02/18 06:21:27;;;;;;;3.90;2.77;;;10.70;99.90;;;;;;4927439;29;20208;-73
2023/02/18 06:23:53;;;;;;;3.30;2.80;;;10.70;99.90;;;;;;4926100;29;20884;-71
2023/02/18 06:26:19;;;;;;;3.00;2.30;;;10.70;99.90;;;;;;4928939;29;20227;-70
2023/02/18 06:28:45;;;;;;;2.70;2.37;;;10.70;99.90;;;;;;4924603;29;20262;-72
2023/02/18 06:31:10;;;;;;;3.43;2.43;;;10.70;99.90;;;;;;4920912;29;20238;-72
2023/02/18 06:33:36;;;;;;;2.60;2.40;;;10.70;99.90;;;;;;4941193;28;20226;-72
2023/02/18 06:36:07;;;;;;;3.80;2.73;;;10.70;99.90;;;;;;4924418;28;20719;-73
2023/02/18 06:38:38;;;;;;;3.23;2.67;;;10.70;99.90;;;;;;4924390;29;20237;-72
2023/02/18 06:41:04;;;;;;;2.97;2.43;;;10.60;99.90;;;;;;4928293;28;20503;-72
2023/02/18 06:43:29;;;;;;;3.20;2.57;;;10.60;99.90;;;;;;4923442;28;20462;-71
2023/02/18 06:45:55;;;;;;;4.00;2.60;;;10.60;99.90;;;;;;4924354;29;20467;-72
2023/02/18 06:48:21;;;;;;;3.50;2.87;;;10.60;99.90;;;;;;4938970;28;20227;-71
2023/02/18 06:50:48;;;;;;;4.00;3.10;;;10.60;99.90;;;;;;4925712;28;20240;-72
2023/02/18 06:53:15;;;;;;;3.77;3.07;;;10.60;99.90;;;;;;4905006;29;20459;-72
2023/02/18 06:55:42;;;;;;;3.13;2.43;;;10.50;99.90;;;;;;4922792;29;21015;-71
2023/02/18 06:58:12;;;;;;;4.40;2.93;;;10.50;99.90;;;;;;4922812;28;20471;-71
2023/02/18 07:00:38;;;;;;;4.30;3.23;;;10.60;99.90;;;;;;4924161;29;20484;-71
2023/02/18 07:03:04;;;;;;;2.90;2.70;;;10.50;99.90;;;;;;4909815;29;20831;-71
2023/02/18 07:05:30;;;;;;;4.63;3.03;;;10.50;99.90;;;;;;4926750;28;20275;-70
2023/02/18 07:07:56;;;;;;;2.67;2.47;;;10.50;99.90;;;;;;4923207;29;20499;-71
2023/02/18 07:10:22;;;;;;;4.27;3.43;;;10.60;99.90;;;;;;4926512;29;20475;-71
2023/02/18 07:12:48;;;;;;;3.73;2.97;;;10.50;99.90;;;;;;4926957;29;20620;-72
2023/02/18 07:15:14;;;;;;;3.20;2.90;;;10.60;99.90;;;;;;4924128;28;20458;-72
2023/02/18 07:17:40;;;;;;;3.90;3.50;;;10.50;99.90;;;;;;4924918;29;20658;-71
2023/02/18 07:20:08;;;;;;;4.03;3.40;;;10.60;99.90;;;;;;4940357;28;20476;-71
2023/02/18 07:22:33;;;;;;;4.03;3.27;;;10.50;99.90;;;;;;4909913;29;20278;-72
2023/02/18 07:24:59;;;;;;;3.83;3.50;;;10.50;99.90;;;;;;4922541;28;20571;-71
2023/02/18 07:27:25;;;;;;;3.87;3.30;;;10.50;99.90;;;;;;4942546;28;20219;-70
2023/02/18 07:29:50;;;;;;;4.23;3.47;;;10.50;99.90;;;;;;4923363;29;20235;-71
2023/02/18 07:32:17;;;;;;;3.97;3.63;;;10.60;99.90;;;;;;4922841;29;20625;-72
2023/02/18 07:34:43;;;;;;;5.53;3.83;;;10.60;99.90;;;;;;4924379;29;20223;-71
2023/02/18 07:37:11;;;;;;;4.93;4.37;;;10.50;99.90;;;;;;4922601;29;20475;-71
2023/02/18 07:39:41;;;;;;;3.93;3.27;;;10.60;99.90;;;;;;4922405;29;20499;-70
2023/02/18 07:42:07;;;;;;;5.73;3.43;;;10.60;99.90;;;;;;4927737;29;20471;-71
2023/02/18 07:44:33;;;;;;;4.97;3.43;;;10.60;99.90;;;;;;4926812;29;20463;-71
2023/02/18 07:46:58;;;;;;;5.67;3.90;;;10.60;99.90;;;;;;4924585;28;20884;-71
2023/02/18 07:49:24;;;;;;;5.07;3.53;;;10.60;99.90;;;;;;4924018;29;20232;-71
2023/02/18 07:51:50;;;;;;;4.13;3.73;;;10.60;99.90;;;;;;4924958;29;20223;-71
2023/02/18 07:54:17;;;;;;;4.70;3.50;;;10.60;99.90;;;;;;4925948;29;20466;-72
2023/02/18 07:56:43;;;;;;;3.87;2.97;;;10.60;99.90;;;;;;4945597;28;20270;-70
2023/02/18 07:59:09;;;;;;;4.30;3.40;;;10.60;99.90;;;;;;4944863;28;20498;-72
2023/02/18 08:01:35;;;;;;;3.63;3.33;;;10.60;99.90;;;;;;4929164;28;20553;-70
2023/02/18 08:04:01;;;;;;;4.13;3.70;;;10.60;99.90;;;;;;4924840;28;20620;-71
2023/02/18 08:06:42;;;;;;;4.23;3.50;;;10.60;99.90;;;;;;4925666;29;20591;-72
2023/02/18 08:09:08;;;;;;;5.00;3.47;;;10.60;99.90;;;;;;4941182;28;20483;-72
2023/02/18 08:11:34;;;;;;;3.67;3.33;;;10.60;99.90;;;;;;4912293;29;20513;-72
2023/02/18 08:14:00;;;;;;;4.27;3.03;;;10.60;99.90;;;;;;4946990;28;20800;-72
2023/02/18 08:16:26;;;;;;;3.40;2.63;;;10.60;99.90;;;;;;4916400;29;20526;-71
2023/02/18 08:18:53;;;;;;;3.70;3.37;;;10.60;99.90;;;;;;4927664;28;20227;-71
2023/02/18 08:21:20;;;;;;;3.03;2.73;;;10.60;99.90;;;;;;4926980;28;20225;-70
2023/02/18 08:23:47;;;;;;;3.73;3.20;;;10.60;99.90;;;;;;4924685;29;20491;-72
2023/02/18 08:26:13;;;;;;;3.40;3.20;;;10.60;99.90;;;;;;4915446;28;20550;-70
2023/02/18 08:28:43;;;;;;;3.73;3.10;;;10.60;99.90;;;;;;4923105;29;20468;-71
2023/02/18 08:31:16;;;;;;;4.60;3.40;;;10.60;99.90;;;;;;4931129;29;20495;-70
2023/02/18 08:33:42;;;;;;;3.70;3.40;;;10.60;99.90;;;;;;4927605;28;20471;-71
2023/02/18 08:36:09;;;;;;;3.93;2.70;;;10.70;99.90;;;;;;4923131;28;20480;-71
2023/02/18 08:38:34;;;;;;;3.20;3.00;;;10.70;99.90;;;;;;4930239;29;20314;-71
2023/02/18 08:41:05;;;;;;;4.83;4.37;;;10.70;99.90;;;;;;4914411;28;20557;-71
2023/02/18 08:43:31;;;;;;;19.00;9.10;;;10.70;99.90;;;;;;4928438;29;20323;-70
2023/02/18 08:45:57;;;;;;;110.90;42.63;;;10.70;99.90;;;;;;4931828;28;20479;-72
2023/02/18 08:48:23;;;;;;;127.10;54.10;;;10.70;99.90;;;;;;4927711;29;20318;-71
2023/02/18 08:50:49;;;;;;;39.30;22.03;;;10.70;99.90;;;;;;4940246;28;20653;-71
2023/02/18 08:53:15;;;;;;;25.07;14.70;;;10.70;99.90;;;;;;4910304;29;20231;-72
2023/02/18 08:55:41;;;;;;;20.07;11.67;;;10.70;99.90;;;;;;4925673;29;20235;-71
2023/02/18 08:58:07;;;;;;;8.30;5.30;;;10.80;99.90;;;;;;4929193;29;20473;-72
2023/02/18 09:00:33;;;;;;;2.77;2.40;;;10.70;99.90;;;;;;4929358;28;20223;-72
2023/02/18 09:02:59;;;;;;;1.60;1.50;;;10.70;99.90;;;;;;4923595;28;20537;-73
2023/02/18 09:05:25;;;;;;;0.93;0.93;;;10.80;99.90;;;;;;4951183;28;20471;-72
2023/02/18 09:07:51;;;;;;;1.10;0.90;;;10.80;99.90;;;;;;4927279;29;20565;-72
2023/02/18 09:10:16;;;;;;;1.00;0.93;;;10.80;99.90;;;;;;4939285;28;20232;-72
2023/02/18 09:12:42;;;;;;;1.20;1.10;;;10.80;99.90;;;;;;4931505;29;20254;-72
2023/02/18 09:15:08;;;;;;;0.97;0.80;;;10.80;99.90;;;;;;4912239;28;20254;-72
2023/02/18 09:17:33;;;;;;;2.40;2.10;;;10.80;99.90;;;;;;4927148;29;20253;-73
2023/02/18 09:19:59;;;;;;;9.57;6.00;;;10.80;99.90;;;;;;4925270;29;20286;-71
2023/02/18 09:22:25;;;;;;;10.63;6.43;;;10.80;99.90;;;;;;4924473;29;20239;-72
2023/02/18 09:24:51;;;;;;;3.77;3.47;;;10.90;99.90;;;;;;4906364;29;20231;-71
2023/02/18 09:27:16;;;;;;;9.43;6.30;;;10.90;99.90;;;;;;4923147;29;20228;-71
2023/02/18 09:29:43;;;;;;;2.83;2.63;;;10.90;99.90;;;;;;4924563;29;20235;-71
2023/02/18 09:32:10;;;;;;;3.80;3.47;;;10.90;99.90;;;;;;4928853;28;20215;-72
2023/02/18 09:34:36;;;;;;;4.80;3.80;;;10.90;99.90;;;;;;4923647;29;20795;-72
2023/02/18 09:37:02;;;;;;;3.40;3.13;;;11.00;99.90;;;;;;4917476;29;20543;-72
2023/02/18 09:39:28;;;;;;;2.57;2.03;;;11.10;99.90;;;;;;4945221;28;20490;-71
2023/02/18 09:41:56;;;;;;;2.60;2.40;;;11.10;99.90;;;;;;4941157;28;20514;-70
2023/02/18 09:44:29;;;;;;;1.93;1.83;;;11.10;99.90;;;;;;4926052;29;20705;-72
2023/02/18 09:47:02;;;;;;;3.53;3.23;;;11.20;99.90;;;;;;4907098;29;20500;-70
2023/02/18 09:49:33;;;;;;;3.00;2.70;;;11.20;99.90;;;;;;4928147;29;20867;-72
2023/02/18 09:52:23;;;;;;;3.57;3.27;;;11.30;99.90;;;;;;4928767;28;20538;-74
2023/02/18 09:54:51;;;;;;;2.20;2.00;;;11.30;99.90;;;;;;4918341;29;20542;-72
2023/02/18 09:57:34;;;;;;;1.50;1.30;;;11.30;99.90;;;;;;4918716;29;20460;-72
2023/02/18 10:00:04;;;;;;;1.90;1.47;;;11.30;99.90;;;;;;4917767;29;20460;-72
2023/02/18 10:02:40;;;;;;;2.80;1.43;;;11.30;99.90;;;;;;4919339;29;20539;-71
2023/02/18 10:05:10;;;;;;;1.70;1.30;;;11.40;99.90;;;;;;4900999;29;20819;-72
2023/02/18 10:07:37;;;;;;;1.33;1.33;;;11.30;99.90;;;;;;4928448;29;20539;-72
2023/02/18 10:10:19;;;;;;;1.60;1.40;;;11.30;99.90;;;;;;4917383;29;20480;-71
2023/02/18 10:12:45;;;;;;;1.90;1.70;;;11.40;99.90;;;;;;4925406;29;20905;-72
2023/02/18 10:15:21;;;;;;;1.43;1.33;;;11.40;99.90;;;;;;4918580;28;20502;-71
2023/02/18 10:17:48;;;;;;;2.33;1.77;;;11.40;99.90;;;;;;4935616;28;20581;-72
2023/02/18 10:20:21;;;;;;;2.30;1.30;;;11.40;99.90;;;;;;4928067;29;20435;-71
2023/02/18 10:22:48;;;;;;;1.90;1.47;;;11.40;99.90;;;;;;4919968;29;20463;-72
2023/02/18 10:25:19;;;;;;;1.53;1.40;;;11.40;99.90;;;;;;4926770;28;20451;-72
2023/02/18 10:27:47;;;;;;;1.87;1.67;;;11.40;99.90;;;;;;4924203;29;20472;-71
2023/02/18 10:30:36;;;;;;;2.40;2.20;;;11.40;99.90;;;;;;4929136;29;20492;-72
2023/02/18 10:33:21;;;;;;;1.50;1.40;;;11.40;99.90;;;;;;4929795;28;20475;-72
2023/02/18 10:35:58;;;;;;;1.47;1.37;;;11.30;99.90;;;;;;4941792;28;20495;-72
2023/02/18 10:38:37;;;;;;;1.33;1.20;;;11.30;99.90;;;;;;4916159;29;20556;-72
2023/02/18 10:41:21;;;;;;;0.73;0.73;;;11.30;99.90;;;;;;4898427;29;20467;-72
2023/02/18 10:44:09;;;;;;;1.50;1.40;;;11.30;99.90;;;;;;4919705;28;20467;-72
2023/02/18 10:47:05;;;;;;;1.60;1.07;;;11.30;99.90;;;;;;4925970;29;20559;-72
2023/02/18 10:49:50;;;;;;;3.47;2.43;;;11.30;99.90;;;;;;4919691;29;20578;-71
2023/02/18 10:52:18;;;;;;;3.97;3.67;;;11.30;99.90;;;;;;4922268;29;20456;-68
2023/02/18 10:55:03;;;;;;;3.13;2.20;;;11.30;99.90;;;;;;4922458;29;20460;-69
2023/02/18 10:57:29;;;;;;;5.20;4.07;;;11.30;99.90;;;;;;4910184;29;20456;-69
2023/02/18 10:59:59;;;;;;;10.40;5.47;;;11.30;99.90;;;;;;4927270;29;20467;-69
2023/02/18 11:02:30;;;;;;;6.83;5.27;;;11.30;99.90;;;;;;4939751;28;20495;-69
2023/02/18 11:04:58;;;;;;;8.83;3.90;;;11.30;99.90;;;;;;4921041;29;20527;-69
2023/02/18 11:07:36;;;;;;;4.20;3.90;;;11.30;99.90;;;;;;4927854;28;20457;-69
2023/02/18 11:10:28;;;;;;;3.70;3.40;;;11.30;99.90;;;;;;4924741;28;20573;-72
2023/02/18 11:13:06;;;;;;;2.27;2.07;;;11.40;99.90;;;;;;4898668;28;20511;-72
2023/02/18 11:15:32;;;;;;;1.67;1.57;;;11.30;99.90;;;;;;4923116;29;20538;-72
2023/02/18 11:18:13;;;;;;;1.47;1.07;;;11.30;99.90;;;;;;4920394;28;20996;-69
2023/02/18 11:20:40;;;;;;;1.13;1.03;;;11.40;99.90;;;;;;4930341;28;20262;-71
2023/02/18 11:23:05;;;;;;;1.87;1.20;;;11.40;99.90;;;;;;4915208;29;20487;-71
2023/02/18 11:25:34;;;;;;;3.20;1.30;;;11.40;99.90;;;;;;4928768;29;20489;-70
2023/02/18 11:28:11;;;;;;;1.53;1.43;;;11.40;99.90;;;;;;4908821;29;20319;-71
2023/02/18 11:30:43;;;;;;;2.50;1.20;;;11.40;99.90;;;;;;4947430;28;20893;-68
2023/02/18 11:33:08;;;;;;;3.40;1.43;;;11.40;99.90;;;;;;4934517;28;20495;-72
2023/02/18 11:35:35;;;;;;;4.10;1.87;;;11.40;99.90;;;;;;4944367;28;20468;-71
2023/02/18 11:38:14;;;;;;;1.90;1.60;;;11.50;99.90;;;;;;4926745;29;20317;-70
2023/02/18 11:40:39;;;;;;;1.57;1.47;;;11.50;99.90;;;;;;4921629;29;20459;-72
2023/02/18 11:43:14;;;;;;;1.40;1.10;;;11.50;99.90;;;;;;4920476;29;20996;-71
2023/02/18 11:45:41;;;;;;;5.50;1.47;;;11.50;99.90;;;;;;4925989;29;20242;-69
2023/02/18 11:48:22;;;;;;;1.57;1.37;;;11.50;99.90;;;;;;4937732;28;20558;-71
2023/02/18 11:50:51;;;;;;;2.23;1.43;;;11.50;99.90;;;;;;4927491;29;20511;-71
2023/02/18 11:53:31;;;;;;;1.13;1.00;;;11.60;99.90;;;;;;4927023;29;20451;-72
2023/02/18 11:55:59;;;;;;;0.90;0.83;;;11.60;99.90;;;;;;4909307;29;20980;-72
2023/02/18 11:58:26;;;;;;;4.87;1.40;;;11.70;99.90;;;;;;4923115;29;20464;-71
2023/02/18 12:00:57;;;;;;;1.07;1.00;;;11.70;99.90;;;;;;4938475;28;20464;-70
2023/02/18 12:03:38;;;;;;;1.90;1.17;;;11.70;99.90;;;;;;4922064;29;20459;-71
2023/02/18 12:06:14;;;;;;;2.67;1.27;;;11.80;99.90;;;;;;4924008;29;20566;-70
2023/02/18 12:08:55;;;;;;;1.57;1.10;;;11.90;99.90;;;;;;4932377;28;20510;-72
2023/02/18 12:11:43;;;;;;;1.37;1.27;;;12.00;99.90;;;;;;4927330;29;20496;-72
2023/02/18 12:14:16;;;;;;;2.17;1.07;;;12.00;99.90;;;;;;4927619;29;20486;-72
2023/02/18 12:16:45;;;;;;;1.13;1.03;;;12.00;99.90;;;;;;4931174;29;20475;-72
2023/02/18 12:19:39;;;;;;;1.10;1.00;;;12.00;99.90;;;;;;4928979;28;20852;-71
2023/02/18 12:22:43;;;;;;;1.60;1.17;;;12.10;99.90;;;;;;4923121;29;20475;-72
2023/02/18 12:25:28;;;;;;;1.03;0.93;;;12.10;99.90;;;;;;4922151;29;20470;-72
2023/02/18 12:28:12;;;;;;;2.30;1.30;;;12.10;99.90;;;;;;4920776;29;20459;-72
2023/02/18 12:31:03;;;;;;;0.93;0.90;;;12.20;99.90;;;;;;4924123;29;20523;-72
2023/02/18 12:33:47;;;;;;;2.00;1.27;;;12.20;99.90;;;;;;4927361;29;20448;-70
2023/02/18 12:36:33;;;;;;;2.83;1.20;;;12.20;99.90;;;;;;4918457;28;21055;-72
2023/02/18 12:39:18;;;;;;;7.20;2.97;;;12.20;99.90;;;;;;4931399;28;20495;-71
2023/02/18 12:42:31;;;;;;;4.10;2.47;;;12.20;99.90;;;;;;4924372;29;20456;-71
2023/02/18 12:45:27;;;;;;;2.63;2.43;;;12.10;99.90;;;;;;4917866;29;20536;-72
2023/02/18 12:48:08;;;;;;;6.00;2.17;;;12.10;99.90;;;;;;4909295;28;20556;-73
2023/02/18 12:50:45;;;;;;;1.60;1.50;;;12.00;99.90;;;;;;4941755;28;20554;-72
2023/02/18 12:53:27;;;;;;;2.07;1.90;;;12.00;99.90;;;;;;4922129;29;20470;-72
2023/02/18 12:55:58;;;;;;;2.47;1.50;;;12.00;99.90;;;;;;4928815;28;20471;-72
2023/02/18 12:58:30;;;;;;;2.03;1.77;;;12.00;99.90;;;;;;4920900;29;20494;-72
2023/02/18 13:01:16;;;;;;;4.10;1.77;;;11.90;99.90;;;;;;4933126;28;20467;-72
2023/02/18 13:03:48;;;;;;;3.10;1.60;;;11.90;99.90;;;;;;4918514;29;20470;-70